createdAt,value
2022-11-30T00:00:55.373Z,49.28
2022-11-30T00:03:23.040Z,47.25
2022-11-30T00:05:50.680Z,53.67
2022-11-30T00:08:18.164Z,42.28
2022-11-30T00:10:45.492Z,38.85
2022-11-30T00:13:12.752Z,42.42
2022-11-30T00:15:40.013Z,46.53
2022-11-30T00:18:07.311Z,39.97
2022-11-30T00:20:34.598Z,45.00
2022-11-30T00:23:01.830Z,47.25
2022-11-30T00:25:29.108Z,50.83
2022-11-30T00:27:56.354Z,43.53
2022-11-30T00:30:23.552Z,40.58
2022-11-30T00:32:50.764Z,39.75
2022-11-30T00:35:18.126Z,39.00
2022-11-30T00:37:45.361Z,39.60
2022-11-30T00:40:12.912Z,41.28
2022-11-30T00:42:40.174Z,40.70
2022-11-30T00:45:07.521Z,36.80
2022-11-30T00:47:34.812Z,39.95
2022-11-30T00:50:02.093Z,39.38
2022-11-30T00:52:30.565Z,41.30
2022-11-30T00:54:57.803Z,41.75
2022-11-30T00:57:25.008Z,44.20
2022-11-30T00:59:52.261Z,41.88
2022-11-30T01:02:19.589Z,41.10
2022-11-30T01:04:47.099Z,44.70
2022-11-30T01:07:14.537Z,44.88
2022-11-30T01:09:41.777Z,46.42
2022-11-30T01:12:09.005Z,43.70
2022-11-30T01:14:36.224Z,41.72
2022-11-30T01:17:03.502Z,48.30
2022-11-30T01:19:30.734Z,46.13
2022-11-30T01:21:57.960Z,41.78
2022-11-30T01:24:25.174Z,41.85
2022-11-30T01:26:52.432Z,36.15
2022-11-30T01:29:19.688Z,36.60
2022-11-30T01:31:46.952Z,33.88
2022-11-30T01:34:14.211Z,37.15
2022-11-30T01:36:41.548Z,37.78
2022-11-30T01:39:09.660Z,38.95
2022-11-30T01:41:37.348Z,37.72
2022-11-30T01:44:07.311Z,37.65
2022-11-30T01:46:44.093Z,45.50
2022-11-30T01:49:11.373Z,46.38
2022-11-30T01:51:38.603Z,42.28
2022-11-30T01:54:07.076Z,41.78
2022-11-30T01:56:34.603Z,40.17
2022-11-30T01:59:01.928Z,35.63
2022-11-30T02:01:29.331Z,35.25
2022-11-30T02:04:05.354Z,37.28
2022-11-30T02:06:32.664Z,35.35
2022-11-30T02:09:00.067Z,39.47
2022-11-30T02:11:28.695Z,35.83
2022-11-30T02:13:58.776Z,35.45
2022-11-30T02:16:31.356Z,38.67
2022-11-30T02:19:01.612Z,40.28
2022-11-30T02:21:35.817Z,36.13
2022-11-30T02:24:18.404Z,34.30
2022-11-30T02:26:52.483Z,36.08
2022-11-30T02:29:19.814Z,34.83
2022-11-30T02:32:02.117Z,33.47
2022-11-30T02:34:30.470Z,32.72
2022-11-30T02:36:59.108Z,38.03
2022-11-30T02:39:26.604Z,38.88
2022-11-30T02:41:53.815Z,35.33
2022-11-30T02:44:21.833Z,36.08
2022-11-30T02:46:58.580Z,36.00
2022-11-30T02:49:31.539Z,34.13
2022-11-30T02:51:59.248Z,32.67
2022-11-30T02:54:26.546Z,34.80
2022-11-30T02:56:53.788Z,32.95
2022-11-30T02:59:21.273Z,40.88
2022-11-30T03:01:48.932Z,35.70
2022-11-30T03:04:16.348Z,37.05
2022-11-30T03:06:43.594Z,44.17
2022-11-30T03:09:10.910Z,39.45
2022-11-30T03:11:38.129Z,39.67
2022-11-30T03:14:05.366Z,41.20
2022-11-30T03:16:33.608Z,44.22
2022-11-30T03:19:00.929Z,41.55
2022-11-30T03:21:29.034Z,40.83
2022-11-30T03:23:56.260Z,42.42
2022-11-30T03:26:23.528Z,42.35
2022-11-30T03:28:50.794Z,46.60
2022-11-30T03:31:18.048Z,38.65
2022-11-30T03:33:45.315Z,38.58
2022-11-30T03:36:12.906Z,38.80
2022-11-30T03:38:40.179Z,36.83
2022-11-30T03:41:14.368Z,34.92
2022-11-30T03:43:41.606Z,35.40
2022-11-30T03:46:09.120Z,36.05
2022-11-30T03:48:36.708Z,32.10
2022-11-30T03:51:04.740Z,41.80
2022-11-30T03:53:32.374Z,30.55
2022-11-30T03:56:01.260Z,31.50
2022-11-30T03:58:28.603Z,33.53
2022-11-30T04:01:11.517Z,36.42
2022-11-30T04:03:38.807Z,32.20
2022-11-30T04:06:07.348Z,34.05
2022-11-30T04:08:34.753Z,30.55
2022-11-30T04:11:02.897Z,30.50
2022-11-30T04:13:30.833Z,33.88
2022-11-30T04:15:58.195Z,26.55
2022-11-30T04:18:26.390Z,33.80
2022-11-30T04:20:57.747Z,33.70
2022-11-30T04:23:25.506Z,26.83
2022-11-30T04:25:53.080Z,31.67
2022-11-30T04:28:20.603Z,31.77
2022-11-30T04:30:48.673Z,25.73
2022-11-30T04:33:16.776Z,25.45
2022-11-30T04:35:49.070Z,27.98
2022-11-30T04:38:16.440Z,26.90
2022-11-30T04:40:44.256Z,25.33
2022-11-30T04:43:11.948Z,27.77
2022-11-30T04:45:39.366Z,23.25
2022-11-30T04:48:07.336Z,24.63
2022-11-30T04:50:34.751Z,25.45
2022-11-30T04:53:01.968Z,27.33
2022-11-30T04:55:29.329Z,27.95
2022-11-30T04:57:56.749Z,24.85
2022-11-30T05:00:24.049Z,26.45
2022-11-30T05:02:53.166Z,24.20
2022-11-30T05:05:20.706Z,23.90
2022-11-30T05:08:06.271Z,26.75
2022-11-30T05:10:33.954Z,28.48
2022-11-30T05:13:01.287Z,29.33
2022-11-30T05:15:28.682Z,24.33
2022-11-30T05:17:58.970Z,26.95
2022-11-30T05:20:26.204Z,26.85
2022-11-30T05:22:53.433Z,24.98
2022-11-30T05:25:20.712Z,23.48
2022-11-30T05:27:47.942Z,22.50
2022-11-30T05:30:15.252Z,26.40
2022-11-30T05:32:42.487Z,23.00
2022-11-30T05:35:10.182Z,21.02
2022-11-30T05:37:37.662Z,20.23
2022-11-30T05:40:05.270Z,17.92
2022-11-30T05:42:32.503Z,21.40
2022-11-30T05:44:59.696Z,20.55
2022-11-30T05:47:27.542Z,18.02
2022-11-30T05:49:54.750Z,21.17
2022-11-30T05:52:21.969Z,16.10
2022-11-30T05:54:49.417Z,16.75
2022-11-30T05:57:16.973Z,14.57
2022-11-30T05:59:44.178Z,12.02
2022-11-30T06:02:11.524Z,13.07
2022-11-30T06:04:38.807Z,13.05
2022-11-30T06:07:06.105Z,14.25
2022-11-30T06:09:33.333Z,12.32
2022-11-30T06:12:00.584Z,12.00
2022-11-30T06:14:27.813Z,15.40
2022-11-30T06:16:55.074Z,13.73
2022-11-30T06:19:22.299Z,12.32
2022-11-30T06:21:49.509Z,11.98
2022-11-30T06:24:16.768Z,13.20
2022-11-30T06:26:43.999Z,15.38
2022-11-30T06:29:11.315Z,10.50
2022-11-30T06:31:38.598Z,14.48
2022-11-30T06:34:05.893Z,11.98
2022-11-30T06:36:36.341Z,14.75
2022-11-30T06:39:03.999Z,15.70
2022-11-30T06:41:31.287Z,14.82
2022-11-30T06:43:58.525Z,15.15
2022-11-30T06:46:27.039Z,15.10
2022-11-30T06:48:54.327Z,13.20
2022-11-30T06:51:21.543Z,11.93
2022-11-30T06:53:48.778Z,12.30
2022-11-30T06:56:16.128Z,13.45
2022-11-30T06:58:43.365Z,12.50
2022-11-30T07:01:15.327Z,12.98
2022-11-30T07:03:43.593Z,11.43
2022-11-30T07:06:14.595Z,12.77
2022-11-30T07:08:42.615Z,12.02
2022-11-30T07:11:10.459Z,12.07
2022-11-30T07:13:37.707Z,11.23
2022-11-30T07:16:06.135Z,12.23
2022-11-30T07:18:33.980Z,13.30
2022-11-30T07:21:01.879Z,10.55
2022-11-30T07:23:54.072Z,12.48
2022-11-30T07:26:23.592Z,11.95
2022-11-30T07:28:54.828Z,11.23
2022-11-30T07:31:24.047Z,10.40
2022-11-30T07:33:51.774Z,10.52
2022-11-30T07:36:19.604Z,10.50
2022-11-30T07:38:47.023Z,11.45
2022-11-30T07:41:14.267Z,12.23
2022-11-30T07:43:41.506Z,13.50
2022-11-30T07:46:08.824Z,14.55
2022-11-30T07:48:36.245Z,11.93
2022-11-30T07:51:07.481Z,14.68
2022-11-30T07:53:34.723Z,12.90
2022-11-30T07:56:09.455Z,15.70
2022-11-30T07:58:36.968Z,14.18
2022-11-30T08:01:04.283Z,14.98
2022-11-30T08:03:36.580Z,11.90
2022-11-30T08:06:14.582Z,13.50
2022-11-30T08:08:42.810Z,11.77
2022-11-30T08:11:11.091Z,13.60
2022-11-30T08:13:38.313Z,11.88
2022-11-30T08:16:06.996Z,12.27
2022-11-30T08:18:34.379Z,15.82
2022-11-30T08:21:02.822Z,14.93
2022-11-30T08:23:38.938Z,17.25
2022-11-30T08:26:26.486Z,14.27
2022-11-30T08:28:54.237Z,11.27
2022-11-30T08:31:41.705Z,14.63
2022-11-30T08:34:11.319Z,11.02
2022-11-30T08:36:38.925Z,13.35
2022-11-30T08:39:07.064Z,11.38
2022-11-30T08:41:35.200Z,13.57
2022-11-30T08:44:02.731Z,37.42
2022-11-30T08:49:22.189Z,18.85
2022-11-30T08:54:40.287Z,13.00
2022-11-30T08:57:07.516Z,15.85
2022-11-30T08:59:34.807Z,11.18
2022-11-30T09:02:02.054Z,10.02
2022-11-30T09:04:29.245Z,10.45
2022-11-30T09:06:59.361Z,10.65
2022-11-30T09:09:26.788Z,13.65
2022-11-30T09:11:54.056Z,9.20
2022-11-30T09:14:21.320Z,9.73
2022-11-30T09:16:48.653Z,9.90
2022-11-30T09:19:15.915Z,11.27
2022-11-30T09:21:48.089Z,11.07
2022-11-30T09:24:18.717Z,12.13
2022-11-30T09:26:45.971Z,13.27
2022-11-30T09:29:13.224Z,13.60
2022-11-30T09:31:40.454Z,12.75
2022-11-30T09:34:07.724Z,10.23
2022-11-30T09:36:36.697Z,10.55
2022-11-30T09:39:04.001Z,10.40
2022-11-30T09:41:37.851Z,15.50
2022-11-30T09:44:20.352Z,9.75
2022-11-30T09:47:00.377Z,8.00
2022-11-30T09:49:36.700Z,7.85
2022-11-30T09:52:05.997Z,11.32
2022-11-30T09:54:37.838Z,11.63
2022-11-30T09:57:10.614Z,12.63
2022-11-30T09:59:38.600Z,11.63
2022-11-30T10:02:15.515Z,14.05
2022-11-30T10:04:42.937Z,13.07
2022-11-30T10:07:10.176Z,14.05
2022-11-30T10:09:53.140Z,16.10
2022-11-30T10:12:33.152Z,16.50
2022-11-30T10:15:18.767Z,16.10
2022-11-30T10:18:07.397Z,17.15
2022-11-30T10:20:40.548Z,14.63
2022-11-30T10:23:21.991Z,18.27
2022-11-30T10:25:57.565Z,14.93
2022-11-30T10:28:48.635Z,12.57
2022-11-30T10:31:17.100Z,15.73
2022-11-30T10:33:48.606Z,14.32
2022-11-30T10:36:27.303Z,15.38
2022-11-30T10:39:00.072Z,15.38
2022-11-30T10:41:32.313Z,13.55
2022-11-30T10:44:20.527Z,14.45
2022-11-30T10:46:54.028Z,14.05
2022-11-30T10:49:23.535Z,13.60
2022-11-30T10:51:53.917Z,16.80
2022-11-30T10:54:22.453Z,15.68
2022-11-30T10:56:50.076Z,10.75
2022-11-30T10:59:47.261Z,16.05
2022-11-30T11:02:33.302Z,18.80
2022-11-30T11:05:13.649Z,14.82
2022-11-30T11:07:47.203Z,14.82
2022-11-30T11:10:18.676Z,11.95
2022-11-30T11:12:55.767Z,11.88
2022-11-30T11:15:24.864Z,13.85
2022-11-30T11:17:52.674Z,10.55
2022-11-30T11:20:36.580Z,9.30
2022-11-30T11:23:04.600Z,10.15
2022-11-30T11:25:36.039Z,14.02
2022-11-30T11:28:14.983Z,12.73
2022-11-30T11:30:42.420Z,14.55
2022-11-30T11:33:12.551Z,14.10
2022-11-30T11:35:41.558Z,12.45
2022-11-30T11:38:21.916Z,12.70
2022-11-30T11:41:02.820Z,13.50
2022-11-30T11:43:32.346Z,14.00
2022-11-30T11:46:12.405Z,15.85
2022-11-30T11:48:47.615Z,15.05
2022-11-30T11:51:14.975Z,14.32
2022-11-30T11:53:51.649Z,15.23
2022-11-30T11:56:34.776Z,15.00
2022-11-30T11:59:13.444Z,19.13
2022-11-30T12:01:41.461Z,19.27
2022-11-30T12:04:28.012Z,17.17
2022-11-30T12:06:56.462Z,17.05
2022-11-30T12:09:26.130Z,16.92
2022-11-30T12:11:53.499Z,16.33
2022-11-30T12:14:20.824Z,17.08
2022-11-30T12:16:48.104Z,16.33
2022-11-30T12:19:17.030Z,17.27
2022-11-30T12:22:01.148Z,19.92
2022-11-30T12:24:43.475Z,16.45
2022-11-30T12:27:29.249Z,15.38
2022-11-30T12:32:32.920Z,15.13
2022-11-30T12:35:10.007Z,12.93
2022-11-30T12:37:55.566Z,15.48
2022-11-30T12:40:26.081Z,12.10
2022-11-30T12:43:02.624Z,13.52
2022-11-30T12:45:29.889Z,16.88
2022-11-30T12:48:04.758Z,17.20
2022-11-30T12:50:41.012Z,13.30
2022-11-30T12:53:18.999Z,13.68
2022-11-30T12:55:52.831Z,14.73
2022-11-30T12:58:26.332Z,15.88
2022-11-30T13:01:05.242Z,14.77
2022-11-30T13:03:45.748Z,17.85
2022-11-30T13:06:15.459Z,14.93
2022-11-30T13:08:58.131Z,16.40
2022-11-30T13:11:29.433Z,18.35
2022-11-30T13:13:58.208Z,16.63
2022-11-30T13:16:26.193Z,20.00
2022-11-30T13:18:55.822Z,17.00
2022-11-30T13:21:40.875Z,28.85
2022-11-30T13:24:23.759Z,24.55
2022-11-30T13:26:50.994Z,17.65
2022-11-30T13:29:32.513Z,18.95
2022-11-30T13:32:06.553Z,17.77
2022-11-30T13:34:33.869Z,16.85
2022-11-30T13:37:03.159Z,16.20
2022-11-30T13:39:31.615Z,17.38
2022-11-30T13:42:01.664Z,22.00
2022-11-30T13:44:38.016Z,19.50
2022-11-30T13:47:06.851Z,22.08
2022-11-30T13:49:35.805Z,19.85
2022-11-30T13:54:57.437Z,21.50
2022-11-30T13:57:30.858Z,21.10
2022-11-30T13:59:59.215Z,20.42
2022-11-30T14:02:44.310Z,22.48
2022-11-30T14:05:14.598Z,19.33
2022-11-30T14:07:42.052Z,21.05
2022-11-30T14:10:28.325Z,19.50
2022-11-30T14:12:58.923Z,24.70
2022-11-30T14:15:31.863Z,23.02
2022-11-30T14:17:59.497Z,22.52
2022-11-30T14:20:32.060Z,22.40
2022-11-30T14:23:09.245Z,22.08
2022-11-30T14:25:36.616Z,23.80
2022-11-30T14:28:06.031Z,23.90
2022-11-30T14:30:34.112Z,23.50
2022-11-30T14:33:05.216Z,27.00
2022-11-30T14:35:33.037Z,26.27
2022-11-30T14:38:01.062Z,36.38
2022-11-30T14:40:33.578Z,36.65
2022-11-30T14:43:01.954Z,34.40
2022-11-30T14:45:31.010Z,35.33
2022-11-30T14:48:17.914Z,35.95
2022-11-30T14:50:47.337Z,35.25
2022-11-30T14:53:33.214Z,37.45
2022-11-30T14:56:00.475Z,37.90
2022-11-30T14:58:27.770Z,48.75
2022-11-30T15:00:55.221Z,39.85
2022-11-30T15:03:34.625Z,41.17
2022-11-30T15:06:05.890Z,39.88
2022-11-30T15:08:38.748Z,41.95
2022-11-30T15:11:07.496Z,47.90
2022-11-30T15:13:35.180Z,41.38
2022-11-30T15:16:02.425Z,42.03
2022-11-30T15:18:29.697Z,41.25
2022-11-30T15:21:00.250Z,44.65
2022-11-30T15:23:27.723Z,40.65
2022-11-30T15:26:12.432Z,49.35
2022-11-30T15:28:40.925Z,39.78
2022-11-30T15:31:11.422Z,48.42
2022-11-30T15:33:42.280Z,44.08
2022-11-30T15:36:23.434Z,44.13
2022-11-30T15:38:55.409Z,43.72
2022-11-30T15:41:24.385Z,44.17
2022-11-30T15:43:53.180Z,45.75
2022-11-30T15:46:30.687Z,49.75
2022-11-30T15:49:17.135Z,49.65
2022-11-30T15:51:50.059Z,55.15
2022-11-30T15:54:41.736Z,52.85
2022-11-30T15:57:09.376Z,52.42
2022-11-30T15:59:36.873Z,48.80
2022-11-30T16:02:16.671Z,42.83
2022-11-30T16:04:59.068Z,41.03
2022-11-30T16:07:28.454Z,48.80
2022-11-30T16:10:18.824Z,48.15
2022-11-30T16:12:46.848Z,45.58
2022-11-30T16:15:16.922Z,48.10
2022-11-30T16:17:44.183Z,52.13
2022-11-30T16:20:14.912Z,45.58
2022-11-30T16:22:43.148Z,51.13
2022-11-30T16:25:13.723Z,57.90
2022-11-30T16:27:41.449Z,55.33
2022-11-30T16:30:09.012Z,61.60
2022-11-30T16:32:36.278Z,71.90
2022-11-30T16:35:03.613Z,70.97
2022-11-30T16:37:30.879Z,74.10
2022-11-30T16:39:58.229Z,64.63
2022-11-30T16:42:25.950Z,58.63
2022-11-30T16:44:53.207Z,52.13
2022-11-30T16:47:20.444Z,53.75
2022-11-30T16:49:47.967Z,55.20
2022-11-30T16:52:17.862Z,48.67
2022-11-30T16:54:45.109Z,50.47
2022-11-30T16:57:12.411Z,47.45
2022-11-30T16:59:39.621Z,47.65
2022-11-30T17:02:14.927Z,50.45
2022-11-30T17:07:09.284Z,44.33
2022-11-30T17:09:36.611Z,44.92
2022-11-30T17:12:04.306Z,47.72
2022-11-30T17:14:31.527Z,47.92
2022-11-30T17:17:01.101Z,48.15
2022-11-30T17:19:28.464Z,45.92
2022-11-30T17:21:55.767Z,43.33
2022-11-30T17:24:22.991Z,46.28
2022-11-30T17:26:50.278Z,43.90
2022-11-30T17:29:17.634Z,47.55
2022-11-30T17:31:44.869Z,46.92
2022-11-30T17:34:12.321Z,47.40
2022-11-30T17:36:39.617Z,46.10
2022-11-30T17:39:07.742Z,45.45
2022-11-30T17:41:35.339Z,50.03
2022-11-30T17:44:03.047Z,44.47
2022-11-30T17:46:30.390Z,44.30
2022-11-30T17:48:57.730Z,44.17
2022-11-30T17:51:24.990Z,52.72
2022-11-30T17:53:52.332Z,46.70
2022-11-30T17:56:19.563Z,51.50
2022-11-30T17:58:49.270Z,44.50
2022-11-30T18:01:26.531Z,53.08
2022-11-30T18:03:54.866Z,47.10
2022-11-30T18:06:22.365Z,48.50
2022-11-30T18:08:49.778Z,48.20
2022-11-30T18:11:21.376Z,50.25
2022-11-30T18:13:50.388Z,52.10
2022-11-30T18:16:22.118Z,53.05
2022-11-30T18:18:49.740Z,53.83
2022-11-30T18:21:18.409Z,54.22
2022-11-30T18:23:45.778Z,53.67
2022-11-30T18:26:14.328Z,53.45
2022-11-30T18:28:41.936Z,55.20
2022-11-30T18:31:09.296Z,53.50
2022-11-30T18:33:36.938Z,53.13
2022-11-30T18:36:06.756Z,51.38
2022-11-30T18:38:38.100Z,44.88
2022-11-30T18:41:06.626Z,45.95
2022-11-30T18:43:34.313Z,47.00
2022-11-30T18:46:09.051Z,51.20
2022-11-30T18:48:36.915Z,52.42
2022-11-30T18:51:16.483Z,48.38
2022-11-30T18:53:44.004Z,49.60
2022-11-30T18:56:15.889Z,46.58
2022-11-30T18:58:43.392Z,48.75
2022-11-30T19:01:12.776Z,49.90
2022-11-30T19:03:40.261Z,51.60
2022-11-30T19:06:08.274Z,54.38
2022-11-30T19:08:35.964Z,54.50
2022-11-30T19:11:07.096Z,49.38
2022-11-30T19:13:34.636Z,51.00
2022-11-30T19:16:05.753Z,52.08
2022-11-30T19:18:33.529Z,53.10
2022-11-30T19:21:01.107Z,55.95
2022-11-30T19:23:28.604Z,49.03
2022-11-30T19:26:00.734Z,51.72
2022-11-30T19:28:30.275Z,52.13
2022-11-30T19:30:58.372Z,57.95
2022-11-30T19:33:26.179Z,55.53
2022-11-30T19:35:53.692Z,55.80
2022-11-30T19:38:20.973Z,47.38
2022-11-30T19:40:48.272Z,53.75
2022-11-30T19:43:15.525Z,45.00
2022-11-30T19:45:42.853Z,49.47
2022-11-30T19:48:10.183Z,44.00
2022-11-30T19:50:37.699Z,43.55
2022-11-30T19:53:06.009Z,45.70
2022-11-30T19:55:33.559Z,45.13
2022-11-30T19:58:00.863Z,44.95
2022-11-30T20:00:28.079Z,40.65
2022-11-30T20:02:55.401Z,37.13
2022-11-30T20:05:22.704Z,38.58
2022-11-30T20:07:50.078Z,38.60
2022-11-30T20:10:17.432Z,36.90
2022-11-30T20:12:44.665Z,36.20
2022-11-30T20:15:12.166Z,39.45
2022-11-30T20:17:39.485Z,36.88
2022-11-30T20:20:07.123Z,37.50
2022-11-30T20:22:34.428Z,31.70
2022-11-30T20:25:01.797Z,33.90
2022-11-30T20:27:29.626Z,32.90
2022-11-30T20:29:56.869Z,33.95
2022-11-30T20:32:24.321Z,34.45
2022-11-30T20:34:51.976Z,32.63
2022-11-30T20:37:19.417Z,30.77
2022-11-30T20:39:46.737Z,31.95
2022-11-30T20:42:14.241Z,30.55
2022-11-30T20:44:41.612Z,28.75
2022-11-30T20:47:08.854Z,29.15
2022-11-30T20:49:36.100Z,29.00
2022-11-30T20:52:03.560Z,27.58
2022-11-30T20:54:31.690Z,23.83
2022-11-30T20:56:59.248Z,23.15
2022-11-30T20:59:26.897Z,26.05
2022-11-30T21:01:55.542Z,27.20
2022-11-30T21:04:23.976Z,24.98
2022-11-30T21:06:51.262Z,22.98
2022-11-30T21:09:19.122Z,25.38
2022-11-30T21:11:47.098Z,25.63
2022-11-30T21:14:14.581Z,27.15
2022-11-30T21:16:41.933Z,23.10
2022-11-30T21:19:10.752Z,26.92
2022-11-30T21:21:38.356Z,27.77
2022-11-30T21:24:07.017Z,23.80
2022-11-30T21:26:38.435Z,24.73
2022-11-30T21:29:07.407Z,26.38
2022-11-30T21:31:35.051Z,28.27
2022-11-30T21:34:02.604Z,32.53
2022-11-30T21:36:30.208Z,31.90
2022-11-30T21:39:04.966Z,30.15
2022-11-30T21:41:33.448Z,31.17
2022-11-30T21:44:00.747Z,33.30
2022-11-30T21:46:28.093Z,32.45
2022-11-30T21:48:55.392Z,31.08
2022-11-30T21:51:23.772Z,32.83
2022-11-30T21:53:52.954Z,29.48
2022-11-30T21:56:22.037Z,32.50
2022-11-30T21:58:50.235Z,32.05
2022-11-30T22:01:26.244Z,30.50
2022-11-30T22:03:56.528Z,32.40
2022-11-30T22:06:24.506Z,33.25
2022-11-30T22:08:52.101Z,33.55
2022-11-30T22:11:23.015Z,35.90
2022-11-30T22:13:50.957Z,31.60
2022-11-30T22:16:18.713Z,32.15
2022-11-30T22:18:46.307Z,33.22
2022-11-30T22:21:14.570Z,32.47
2022-11-30T22:23:43.280Z,39.10
2022-11-30T22:26:15.167Z,38.60
2022-11-30T22:28:43.905Z,43.45
2022-11-30T22:31:12.205Z,38.83
2022-11-30T22:33:40.405Z,39.45
2022-11-30T22:36:08.313Z,37.15
2022-11-30T22:38:35.652Z,40.38
2022-11-30T22:41:06.837Z,41.10
2022-11-30T22:43:34.434Z,42.40
2022-11-30T22:46:09.340Z,40.97
2022-11-30T22:48:37.109Z,36.30
2022-11-30T22:51:09.352Z,49.75
2022-11-30T22:53:37.191Z,45.65
2022-11-30T22:56:05.788Z,39.80
2022-11-30T22:58:33.438Z,47.42
2022-11-30T23:01:08.398Z,48.13
2022-11-30T23:03:35.923Z,43.00
2022-11-30T23:06:03.317Z,43.72
2022-11-30T23:08:31.307Z,39.95
2022-11-30T23:11:02.364Z,45.85
2022-11-30T23:13:29.957Z,41.15
2022-11-30T23:15:59.819Z,45.65
2022-11-30T23:18:30.493Z,44.15
2022-11-30T23:20:58.055Z,42.63
2022-11-30T23:23:25.299Z,42.88
2022-11-30T23:25:52.593Z,41.28
2022-11-30T23:28:19.863Z,41.42
2022-11-30T23:30:47.096Z,38.17
2022-11-30T23:33:14.388Z,42.22
2022-11-30T23:35:44.867Z,41.40
2022-11-30T23:38:12.406Z,39.25
2022-11-30T23:40:39.697Z,37.40
2022-11-30T23:43:06.914Z,42.95
2022-11-30T23:45:34.189Z,40.88
2022-11-30T23:48:01.398Z,45.42
2022-11-30T23:50:28.612Z,43.25
2022-11-30T23:52:55.854Z,35.38
2022-11-30T23:55:23.082Z,40.63
2022-11-30T23:57:50.348Z,41.00
